createdAt,value
2019-05-17T00:02:26.576Z,97729.75
2019-05-17T00:04:57.418Z,97723.47
2019-05-17T00:07:28.761Z,97718.48
2019-05-17T00:09:59.905Z,97722.08
2019-05-17T00:12:31.101Z,97713.38
2019-05-17T00:15:02.156Z,97714.13
2019-05-17T00:17:33.413Z,97706.37
2019-05-17T00:20:08.248Z,97699.61
2019-05-17T00:22:39.237Z,97702.84
2019-05-17T00:25:11.008Z,97697.05
2019-05-17T00:27:43.470Z,97697.98
2019-05-17T00:30:17.291Z,97696.94
2019-05-17T00:32:48.365Z,97697.20
2019-05-17T00:35:19.416Z,97701.27
2019-05-17T00:37:50.623Z,97705.92
2019-05-17T00:40:21.843Z,97705.09
2019-05-17T00:42:52.939Z,97702.47
2019-05-17T00:45:23.885Z,97704.19
2019-05-17T00:47:57.131Z,97710.19
2019-05-17T00:50:28.024Z,97701.95
2019-05-17T00:52:59.289Z,97704.69
2019-05-17T00:55:31.149Z,97701.08
2019-05-17T00:58:02.138Z,97696.05
2019-05-17T01:00:37.714Z,97697.80
2019-05-17T01:03:07.909Z,97699.10
2019-05-17T01:05:39.984Z,97698.75
2019-05-17T01:08:11.224Z,97699.58
2019-05-17T01:10:42.380Z,97706.96
2019-05-17T01:13:13.590Z,97701.97
2019-05-17T01:15:44.750Z,97700.80
2019-05-17T01:18:16.273Z,97697.91
2019-05-17T01:20:47.681Z,97698.73
2019-05-17T01:23:18.947Z,97696.94
2019-05-17T01:25:49.991Z,97697.63
2019-05-17T01:28:21.174Z,97702.52
2019-05-17T01:30:52.254Z,97698.94
2019-05-17T01:33:23.366Z,97699.87
2019-05-17T01:35:57.121Z,97693.05
2019-05-17T01:38:27.270Z,97699.58
2019-05-17T01:40:58.323Z,97685.03
2019-05-17T01:43:29.514Z,97691.23
2019-05-17T01:46:00.947Z,97690.63
2019-05-17T01:48:32.208Z,97687.76
2019-05-17T01:51:03.319Z,97690.63
2019-05-17T01:53:36.436Z,97690.97
2019-05-17T01:56:07.888Z,97690.34
2019-05-17T01:58:39.002Z,97694.28
2019-05-17T02:01:10.252Z,97691.31
2019-05-17T02:03:41.484Z,97689.38
2019-05-17T02:06:12.668Z,97691.39
2019-05-17T02:08:43.824Z,97682.94
2019-05-17T02:11:18.196Z,97684.34
2019-05-17T02:13:48.093Z,97687.45
2019-05-17T02:16:19.337Z,97686.03
2019-05-17T02:18:50.966Z,97692.21
2019-05-17T02:21:21.988Z,97692.59
2019-05-17T02:23:53.032Z,97688.07
2019-05-17T02:26:26.568Z,97680.13
2019-05-17T02:28:57.220Z,97680.69
2019-05-17T02:31:32.663Z,97685.72
2019-05-17T02:34:03.242Z,97676.45
2019-05-17T02:36:34.385Z,97674.20
2019-05-17T02:39:07.724Z,97680.78
2019-05-17T02:41:42.787Z,97681.27
2019-05-17T02:44:13.211Z,97673.19
2019-05-17T02:46:44.596Z,97672.16
2019-05-17T02:49:15.746Z,97674.39
2019-05-17T02:51:46.986Z,97675.47
2019-05-17T02:54:18.180Z,97687.55
2019-05-17T02:56:49.324Z,97686.82
2019-05-17T02:59:23.059Z,97695.03
2019-05-17T03:01:53.314Z,97690.48
2019-05-17T03:04:24.310Z,97690.27
2019-05-17T03:06:55.458Z,97684.34
2019-05-17T03:09:28.418Z,97682.58
2019-05-17T03:12:02.965Z,97690.92
2019-05-17T03:14:32.964Z,97688.09
2019-05-17T03:17:04.348Z,97684.98
2019-05-17T03:19:35.598Z,97682.63
2019-05-17T03:22:08.009Z,97685.12
2019-05-17T03:24:39.830Z,97683.41
2019-05-17T03:27:13.415Z,97681.47
2019-05-17T03:29:43.869Z,97684.16
2019-05-17T03:32:17.722Z,97682.25
2019-05-17T03:34:55.566Z,97687.26
2019-05-17T03:37:30.191Z,97685.67
2019-05-17T03:39:57.832Z,97686.50
2019-05-17T03:42:29.007Z,97691.67
2019-05-17T03:45:02.899Z,97695.81
2019-05-17T03:47:33.576Z,97703.95
2019-05-17T03:50:05.354Z,97698.44
2019-05-17T03:52:36.742Z,97697.58
2019-05-17T03:55:12.808Z,97702.41
2019-05-17T03:57:44.003Z,97702.90
2019-05-17T04:00:15.821Z,97698.59
2019-05-17T04:02:47.093Z,97693.89
2019-05-17T04:05:18.147Z,97690.30
2019-05-17T04:07:49.524Z,97693.97
2019-05-17T04:10:22.875Z,97695.28
2019-05-17T04:12:53.707Z,97706.45
2019-05-17T04:15:25.047Z,97702.66
2019-05-17T04:17:56.210Z,97713.47
2019-05-17T04:20:27.337Z,97712.44
2019-05-17T04:23:04.067Z,97708.14
2019-05-17T04:25:38.708Z,97710.62
2019-05-17T04:28:08.636Z,97713.80
2019-05-17T04:30:43.030Z,97710.33
2019-05-17T04:33:13.033Z,97712.78
2019-05-17T04:35:44.607Z,97719.48
2019-05-17T04:38:15.715Z,97710.12
2019-05-17T04:40:46.972Z,97711.75
2019-05-17T04:43:18.192Z,97712.26
2019-05-17T04:45:53.167Z,97713.27
2019-05-17T04:48:23.353Z,97719.53
2019-05-17T04:50:54.566Z,97717.95
2019-05-17T04:53:25.593Z,97717.02
2019-05-17T04:55:56.929Z,97722.52
2019-05-17T04:58:27.967Z,97717.53
2019-05-17T05:00:59.209Z,97716.76
2019-05-17T05:03:32.607Z,97713.72
2019-05-17T05:06:03.687Z,97716.84
2019-05-17T05:08:34.854Z,97715.03
2019-05-17T05:11:06.392Z,97710.08
2019-05-17T05:13:37.577Z,97717.78
2019-05-17T05:16:08.924Z,97719.02
2019-05-17T05:18:42.084Z,97722.70
2019-05-17T05:21:12.819Z,97724.51
2019-05-17T05:23:44.473Z,97717.44
2019-05-17T05:26:15.919Z,97720.91
2019-05-17T05:28:49.635Z,97723.72
2019-05-17T05:31:20.005Z,97725.75
2019-05-17T05:33:52.233Z,97727.85
2019-05-17T05:36:23.437Z,97719.66
2019-05-17T05:38:54.602Z,97723.23
2019-05-17T05:41:25.616Z,97722.03
2019-05-17T05:43:58.291Z,97718.45
2019-05-17T05:46:31.649Z,97718.77
2019-05-17T05:49:02.099Z,97721.05
2019-05-17T05:51:33.154Z,97726.09
2019-05-17T05:54:04.328Z,97719.59
2019-05-17T05:56:36.976Z,97731.09
2019-05-17T05:59:08.312Z,97728.70
2019-05-17T06:01:42.100Z,97729.64
2019-05-17T06:04:13.554Z,97723.99
2019-05-17T06:06:44.849Z,97729.98
2019-05-17T06:09:16.002Z,97733.48
2019-05-17T06:11:47.466Z,97734.20
2019-05-17T06:14:18.534Z,97736.38
2019-05-17T06:16:52.008Z,97736.02
2019-05-17T06:19:22.860Z,97733.87
2019-05-17T06:21:54.090Z,97737.63
2019-05-17T06:24:25.176Z,97743.69
2019-05-17T06:26:56.353Z,97740.89
2019-05-17T06:29:27.358Z,97743.36
2019-05-17T06:31:58.503Z,97752.84
2019-05-17T06:34:29.803Z,97754.05
2019-05-17T06:37:02.242Z,97750.30
2019-05-17T06:39:33.520Z,97739.23
2019-05-17T06:42:04.584Z,97741.38
2019-05-17T06:44:35.944Z,97738.86
2019-05-17T06:47:07.288Z,97741.08
2019-05-17T06:49:38.224Z,97743.25
2019-05-17T06:52:11.510Z,97737.60
2019-05-17T06:54:41.970Z,97745.44
2019-05-17T06:57:13.291Z,97747.03
2019-05-17T06:59:44.436Z,97742.14
2019-05-17T07:02:15.669Z,97750.06
2019-05-17T07:04:47.284Z,97743.20
2019-05-17T07:07:27.322Z,97738.97
2019-05-17T07:10:01.920Z,97751.29
2019-05-17T07:12:33.450Z,97749.29
2019-05-17T07:15:06.219Z,97757.66
2019-05-17T07:17:39.783Z,97759.02
2019-05-17T07:20:10.762Z,97756.72
2019-05-17T07:22:41.944Z,97750.66
2019-05-17T07:25:14.214Z,97744.28
2019-05-17T07:27:45.998Z,97747.30
2019-05-17T07:30:19.505Z,97747.13
2019-05-17T07:32:50.950Z,97749.55
2019-05-17T07:35:23.295Z,97750.66
2019-05-17T07:37:54.636Z,97752.30
2019-05-17T07:40:26.023Z,97753.65
2019-05-17T07:43:10.136Z,97748.69
2019-05-17T07:45:31.260Z,97754.52
2019-05-17T07:48:02.173Z,97749.15
2019-05-17T07:50:33.722Z,97751.76
2019-05-17T07:53:04.872Z,97752.25
2019-05-17T07:55:36.137Z,97752.52
2019-05-17T07:58:09.700Z,97754.12
2019-05-17T08:00:40.510Z,97752.77
2019-05-17T08:03:13.204Z,97751.48
2019-05-17T08:05:46.189Z,97750.72
2019-05-17T08:08:17.340Z,97759.14
2019-05-17T08:10:51.028Z,97754.80
2019-05-17T08:13:30.155Z,97756.38
2019-05-17T08:15:54.941Z,97744.63
2019-05-17T08:18:25.985Z,97750.61
2019-05-17T08:20:59.534Z,97748.91
2019-05-17T08:23:30.606Z,97743.55
2019-05-17T08:26:01.898Z,97747.91
2019-05-17T08:28:32.907Z,97749.91
2019-05-17T08:31:03.894Z,97748.45
2019-05-17T08:33:34.737Z,97750.33
2019-05-17T08:36:06.248Z,97751.91
2019-05-17T08:38:39.353Z,97749.77
2019-05-17T08:41:10.646Z,97751.93
2019-05-17T08:43:46.736Z,97752.53
2019-05-17T08:46:14.764Z,97745.30
2019-05-17T08:48:46.069Z,97749.33
2019-05-17T08:51:19.577Z,97759.19
2019-05-17T08:53:50.279Z,97762.20
2019-05-17T08:56:21.496Z,97765.63
2019-05-17T08:58:52.731Z,97757.25
2019-05-17T09:01:23.773Z,97758.21
2019-05-17T09:03:54.941Z,97751.46
2019-05-17T09:06:26.393Z,97747.63
2019-05-17T09:08:57.595Z,97752.75
2019-05-17T09:11:30.262Z,97759.00
2019-05-17T09:14:02.269Z,97752.46
2019-05-17T09:16:33.590Z,97762.81
2019-05-17T09:19:04.818Z,97752.27
2019-05-17T09:21:35.933Z,97743.09
2019-05-17T09:24:07.150Z,97748.69
2019-05-17T09:26:39.984Z,97742.09
2019-05-17T09:29:10.974Z,97743.03
2019-05-17T09:31:42.305Z,97741.22
2019-05-17T09:34:13.478Z,97737.01
2019-05-17T09:36:44.509Z,97743.50
2019-05-17T09:39:15.935Z,97744.31
2019-05-17T09:41:47.147Z,97741.91
2019-05-17T09:44:20.658Z,97738.58
2019-05-17T09:46:51.921Z,97736.44
2019-05-17T09:49:22.949Z,97733.31
2019-05-17T09:51:54.048Z,97735.97
2019-05-17T09:54:39.023Z,97735.45
2019-05-17T09:57:00.444Z,97735.20
2019-05-17T09:59:32.614Z,97734.40
2019-05-17T10:02:03.576Z,97729.88
2019-05-17T10:04:34.786Z,97728.83
2019-05-17T10:07:06.279Z,97735.59
2019-05-17T10:09:39.831Z,97731.91
2019-05-17T10:12:10.274Z,97728.94
2019-05-17T10:14:41.363Z,97731.39
2019-05-17T10:17:12.529Z,97731.94
2019-05-17T10:19:43.671Z,97732.44
2019-05-17T10:22:14.986Z,97729.41
2019-05-17T10:24:46.163Z,97736.45
2019-05-17T10:27:19.626Z,97730.39
2019-05-17T10:29:51.152Z,97729.83
2019-05-17T10:32:22.118Z,97733.55
2019-05-17T10:34:53.144Z,97732.59
2019-05-17T10:37:24.028Z,97726.16
2019-05-17T10:39:55.154Z,97733.80
2019-05-17T10:42:26.175Z,97728.49
2019-05-17T10:44:59.764Z,97727.03
2019-05-17T10:47:30.342Z,97720.63
2019-05-17T10:50:02.017Z,97723.35
2019-05-17T10:52:33.394Z,97727.36
2019-05-17T10:55:06.618Z,97728.31
2019-05-17T10:57:37.562Z,97727.19
2019-05-17T11:00:10.387Z,97723.17
2019-05-17T11:02:41.634Z,97720.72
2019-05-17T11:05:13.063Z,97722.79
2019-05-17T11:07:44.439Z,97714.69
2019-05-17T11:10:19.267Z,97716.34
2019-05-17T11:12:49.940Z,97716.61
2019-05-17T11:15:21.168Z,97715.37
2019-05-17T11:17:52.478Z,97713.55
2019-05-17T11:20:23.759Z,97710.49
2019-05-17T11:22:54.772Z,97708.78
2019-05-17T11:25:25.936Z,97705.05
2019-05-17T11:27:57.070Z,97702.50
2019-05-17T11:30:28.360Z,97701.91
2019-05-17T11:32:59.485Z,97709.20
2019-05-17T11:35:30.656Z,97701.73
2019-05-17T11:38:01.875Z,97704.95
2019-05-17T11:40:33.110Z,97705.61
2019-05-17T11:43:04.668Z,97707.61
2019-05-17T11:45:35.686Z,97711.20
2019-05-17T11:48:06.862Z,97705.81
2019-05-17T11:50:38.264Z,97700.45
2019-05-17T11:53:09.401Z,97691.33
2019-05-17T11:55:40.682Z,97686.64
2019-05-17T11:58:11.623Z,97686.59
2019-05-17T12:00:43.167Z,97678.36
2019-05-17T12:03:14.329Z,97682.02
2019-05-17T12:05:45.180Z,97686.69
2019-05-17T12:08:16.646Z,97682.13
2019-05-17T12:10:47.812Z,97683.15
2019-05-17T12:13:19.155Z,97683.25
2019-05-17T12:15:50.325Z,97690.87
2019-05-17T12:18:21.601Z,97702.08
2019-05-17T12:20:52.915Z,97698.13
2019-05-17T12:23:24.009Z,97687.28
2019-05-17T12:25:55.159Z,97691.59
2019-05-17T12:28:26.591Z,97683.00
2019-05-17T12:30:57.927Z,97682.55
2019-05-17T12:33:28.796Z,97677.67
2019-05-17T12:36:00.327Z,97683.00
2019-05-17T12:38:31.369Z,97679.28
2019-05-17T12:41:02.719Z,97678.36
2019-05-17T12:43:33.748Z,97678.39
2019-05-17T12:46:05.333Z,97673.36
2019-05-17T12:48:36.663Z,97678.06
2019-05-17T12:51:07.785Z,97682.14
2019-05-17T12:53:38.825Z,97694.73
2019-05-17T12:56:09.913Z,97680.45
2019-05-17T12:58:41.151Z,97677.57
2019-05-17T13:01:12.245Z,97680.31
2019-05-17T13:03:43.477Z,97675.92
2019-05-17T13:06:14.605Z,97674.74
2019-05-17T13:08:45.790Z,97677.62
2019-05-17T13:11:17.027Z,97678.52
2019-05-17T13:13:48.339Z,97673.17
2019-05-17T13:16:19.557Z,97676.31
2019-05-17T13:18:51.898Z,97662.41
2019-05-17T13:21:23.125Z,97672.05
2019-05-17T13:23:54.375Z,97661.45
2019-05-17T13:26:25.671Z,97666.29
2019-05-17T13:28:56.859Z,97667.65
2019-05-17T13:31:28.087Z,97670.39
2019-05-17T13:33:59.240Z,97662.95
2019-05-17T13:36:30.162Z,97663.02
2019-05-17T13:39:01.358Z,97654.97
2019-05-17T13:41:32.798Z,97650.42
2019-05-17T13:44:05.376Z,97650.69
2019-05-17T13:46:36.475Z,97653.87
2019-05-17T13:49:07.623Z,97655.34
2019-05-17T13:51:38.990Z,97659.59
2019-05-17T13:54:10.208Z,97660.22
2019-05-17T13:56:41.627Z,97657.44
2019-05-17T13:59:13.626Z,97652.63
2019-05-17T14:01:44.468Z,97646.65
2019-05-17T14:04:15.397Z,97646.08
2019-05-17T14:06:46.532Z,97648.81
2019-05-17T14:09:17.625Z,97654.31
2019-05-17T14:11:48.815Z,97644.97
2019-05-17T14:14:19.833Z,97650.48
2019-05-17T14:16:50.893Z,97657.95
2019-05-17T14:19:22.068Z,97654.48
2019-05-17T14:21:53.096Z,97655.14
2019-05-17T14:24:24.413Z,97656.11
2019-05-17T14:26:55.557Z,97646.80
2019-05-17T14:29:26.731Z,97663.34
2019-05-17T14:32:02.544Z,97661.59
2019-05-17T14:34:33.657Z,97656.27
2019-05-17T14:37:07.561Z,97657.81
2019-05-17T14:39:37.708Z,97658.28
2019-05-17T14:42:08.838Z,97658.12
2019-05-17T14:44:39.868Z,97656.16
2019-05-17T14:47:11.167Z,97652.38
2019-05-17T14:49:42.445Z,97651.44
2019-05-17T14:52:14.982Z,97653.80
2019-05-17T14:54:45.967Z,97653.02
2019-05-17T14:57:17.219Z,97655.52
2019-05-17T14:59:48.501Z,97664.50
2019-05-17T15:02:20.087Z,97664.16
2019-05-17T15:04:51.555Z,97671.77
2019-05-17T15:07:22.649Z,97674.85
2019-05-17T15:09:54.103Z,97677.45
2019-05-17T15:12:28.230Z,97676.27
2019-05-17T15:14:58.035Z,97680.89
2019-05-17T15:17:29.219Z,97674.98
2019-05-17T15:20:00.466Z,97678.38
2019-05-17T15:22:31.836Z,97676.93
2019-05-17T15:25:02.951Z,97675.78
2019-05-17T15:27:34.370Z,97671.86
2019-05-17T15:30:07.738Z,97669.70
2019-05-17T15:32:38.921Z,97668.27
2019-05-17T15:35:10.800Z,97661.46
2019-05-17T15:37:42.247Z,97656.64
2019-05-17T15:40:13.490Z,97657.77
2019-05-17T15:42:45.069Z,97652.20
2019-05-17T15:45:16.288Z,97650.79
2019-05-17T15:47:47.596Z,97653.53
2019-05-17T15:50:18.924Z,97657.88
2019-05-17T15:52:50.164Z,97667.34
2019-05-17T15:55:21.830Z,97662.48
2019-05-17T15:57:53.279Z,97658.16
2019-05-17T16:00:24.454Z,97658.41
2019-05-17T16:02:55.810Z,97665.89
2019-05-17T16:05:26.788Z,97667.00
2019-05-17T16:07:58.062Z,97671.48
2019-05-17T16:10:29.948Z,97671.98
2019-05-17T16:13:03.212Z,97676.36
2019-05-17T16:15:33.999Z,97678.20
2019-05-17T16:18:05.088Z,97673.84
2019-05-17T16:20:36.158Z,97672.52
2019-05-17T16:23:07.360Z,97667.94
2019-05-17T16:25:39.373Z,97677.23
2019-05-17T16:28:10.354Z,97679.28
2019-05-17T16:30:41.390Z,97672.45
2019-05-17T16:33:12.980Z,97681.50
2019-05-17T16:35:45.066Z,97681.50
2019-05-17T16:38:16.857Z,97676.41
2019-05-17T16:40:48.282Z,97677.67
2019-05-17T16:43:19.550Z,97676.66
2019-05-17T16:45:52.110Z,97678.97
2019-05-17T16:48:23.403Z,97679.00
2019-05-17T16:50:54.532Z,97671.69
2019-05-17T16:53:25.796Z,97669.03
2019-05-17T16:55:56.997Z,97671.50
2019-05-17T16:58:28.226Z,97665.20
2019-05-17T17:01:03.638Z,97663.75
2019-05-17T17:03:43.701Z,97668.21
2019-05-17T17:06:10.114Z,97666.00
2019-05-17T17:08:41.795Z,97667.14
2019-05-17T17:11:12.848Z,97671.19
2019-05-17T17:13:44.256Z,97675.77
2019-05-17T17:16:15.840Z,97671.56
2019-05-17T17:18:47.039Z,97663.75
2019-05-17T17:21:18.469Z,97660.56
2019-05-17T17:23:49.580Z,97666.00
2019-05-17T17:26:20.707Z,97663.24
2019-05-17T17:28:51.752Z,97661.47
2019-05-17T17:31:23.161Z,97664.70
2019-05-17T17:33:54.354Z,97659.03
2019-05-17T17:36:25.400Z,97665.80
2019-05-17T17:38:56.561Z,97663.97
2019-05-17T17:41:28.041Z,97672.73
2019-05-17T17:43:59.535Z,97659.36
2019-05-17T17:46:30.855Z,97656.48
2019-05-17T17:49:02.168Z,97661.59
2019-05-17T17:51:33.490Z,97655.78
2019-05-17T17:54:04.641Z,97654.80
2019-05-17T17:56:35.988Z,97650.23
2019-05-17T17:59:07.385Z,97652.47
2019-05-17T18:01:38.441Z,97655.40
2019-05-17T18:04:09.423Z,97661.65
2019-05-17T18:06:40.642Z,97664.56
2019-05-17T18:09:12.011Z,97667.17
2019-05-17T18:11:43.057Z,97660.64
2019-05-17T18:14:14.404Z,97638.39
2019-05-17T18:16:45.470Z,97634.00
2019-05-17T18:19:16.458Z,97644.46
2019-05-17T18:21:47.530Z,97648.30
2019-05-17T18:24:19.586Z,97652.63
2019-05-17T18:26:50.805Z,97651.66
2019-05-17T18:29:22.049Z,97642.25
2019-05-17T18:31:53.089Z,97648.20
2019-05-17T18:34:24.314Z,97655.17
2019-05-17T18:36:57.057Z,97649.23
2019-05-17T18:39:28.491Z,97655.38
2019-05-17T18:42:00.085Z,97658.68
2019-05-17T18:44:31.167Z,97661.97
2019-05-17T18:47:02.728Z,97671.42
2019-05-17T18:49:33.903Z,97676.73
2019-05-17T18:52:05.222Z,97676.09
2019-05-17T18:54:43.817Z,97677.79
2019-05-17T18:57:14.938Z,97683.75
2019-05-17T18:59:45.927Z,97678.14
2019-05-17T19:02:17.639Z,97687.41
2019-05-17T19:04:49.183Z,97683.63
2019-05-17T19:07:20.380Z,97692.91
2019-05-17T19:09:51.645Z,97698.34
2019-05-17T19:12:22.918Z,97700.36
2019-05-17T19:14:54.326Z,97699.17
2019-05-17T19:17:25.666Z,97701.29
2019-05-17T19:19:56.817Z,97696.81
2019-05-17T19:22:27.800Z,97696.83
2019-05-17T19:24:59.236Z,97698.80
2019-05-17T19:27:30.246Z,97703.57
2019-05-17T19:30:01.612Z,97704.70
2019-05-17T19:32:32.782Z,97711.47
2019-05-17T19:35:05.409Z,97700.85
2019-05-17T19:37:36.572Z,97702.64
2019-05-17T19:40:09.378Z,97710.36
2019-05-17T19:42:40.933Z,97707.72
2019-05-17T19:45:13.882Z,97709.47
2019-05-17T19:47:44.922Z,97708.31
2019-05-17T19:50:17.286Z,97705.97
2019-05-17T19:52:48.339Z,97704.81
2019-05-17T19:55:19.691Z,97704.80
2019-05-17T19:57:50.741Z,97705.79
2019-05-17T20:00:22.281Z,97705.42
2019-05-17T20:02:53.487Z,97711.36
2019-05-17T20:05:25.588Z,97714.29
2019-05-17T20:07:56.658Z,97707.84
2019-05-17T20:10:28.183Z,97709.83
2019-05-17T20:12:59.162Z,97709.67
2019-05-17T20:15:34.619Z,97708.02
2019-05-17T20:18:03.075Z,97704.72
2019-05-17T20:20:34.346Z,97701.86
2019-05-17T20:23:05.487Z,97702.64
2019-05-17T20:25:36.898Z,97702.42
2019-05-17T20:28:08.533Z,97705.56
2019-05-17T20:30:39.843Z,97707.53
2019-05-17T20:33:11.176Z,97703.91
2019-05-17T20:35:42.465Z,97707.24
2019-05-17T20:38:13.962Z,97706.05
2019-05-17T20:40:45.763Z,97704.73
2019-05-17T20:43:16.840Z,97699.45
2019-05-17T20:45:47.986Z,97694.28
2019-05-17T20:48:20.235Z,97691.03
2019-05-17T20:50:51.262Z,97684.88
2019-05-17T20:53:22.485Z,97686.70
2019-05-17T20:55:53.727Z,97680.59
2019-05-17T20:58:24.899Z,97689.77
2019-05-17T21:00:56.406Z,97688.77
2019-05-17T21:03:27.470Z,97684.81
2019-05-17T21:05:58.504Z,97678.88
2019-05-17T21:08:44.834Z,97675.59
2019-05-17T21:11:02.594Z,97670.98
2019-05-17T21:13:33.896Z,97668.55
2019-05-17T21:16:05.050Z,97664.11
2019-05-17T21:18:36.497Z,97666.91
2019-05-17T21:21:07.448Z,97666.09
2019-05-17T21:23:38.366Z,97659.83
2019-05-17T21:26:09.698Z,97653.06
2019-05-17T21:28:41.072Z,97663.90
2019-05-17T21:31:12.392Z,97665.37
2019-05-17T21:33:43.626Z,97666.95
2019-05-17T21:36:15.109Z,97663.94
2019-05-17T21:38:46.285Z,97664.09
2019-05-17T21:41:17.408Z,97673.06
2019-05-17T21:43:48.321Z,97665.75
2019-05-17T21:46:19.755Z,97667.05
2019-05-17T21:48:50.746Z,97667.70
2019-05-17T21:51:21.820Z,97672.92
2019-05-17T21:53:52.962Z,97666.50
2019-05-17T21:56:23.960Z,97666.98
2019-05-17T21:58:54.985Z,97666.14
2019-05-17T22:01:28.289Z,97665.59
2019-05-17T22:03:59.325Z,97660.64
2019-05-17T22:06:30.654Z,97661.91
2019-05-17T22:09:01.974Z,97658.66
2019-05-17T22:11:33.484Z,97661.41
2019-05-17T22:14:04.609Z,97660.39
2019-05-17T22:16:35.824Z,97663.14
2019-05-17T22:19:06.980Z,97663.79
2019-05-17T22:21:38.203Z,97663.45
2019-05-17T22:24:09.538Z,97668.23
2019-05-17T22:26:40.458Z,97666.92
2019-05-17T22:29:11.418Z,97661.13
2019-05-17T22:31:42.459Z,97665.24
2019-05-17T22:34:13.687Z,97661.87
2019-05-17T22:36:44.965Z,97664.82
2019-05-17T22:39:16.030Z,97661.64
2019-05-17T22:41:47.230Z,97669.77
2019-05-17T22:44:18.362Z,97668.33
2019-05-17T22:46:55.381Z,97666.52
2019-05-17T22:49:26.208Z,97669.72
2019-05-17T22:51:57.236Z,97666.84
2019-05-17T22:54:28.479Z,97667.91
2019-05-17T22:56:59.622Z,97663.70
2019-05-17T22:59:30.415Z,97666.97
2019-05-17T23:02:01.629Z,97669.75
2019-05-17T23:04:32.759Z,97665.06
2019-05-17T23:07:03.783Z,97664.47
2019-05-17T23:09:35.039Z,97664.31
2019-05-17T23:12:06.534Z,97664.42
2019-05-17T23:14:37.489Z,97666.52
2019-05-17T23:17:08.913Z,97667.41
2019-05-17T23:19:40.094Z,97668.95
2019-05-17T23:22:11.152Z,97665.34
2019-05-17T23:24:42.149Z,97658.55
2019-05-17T23:27:13.394Z,97654.34
2019-05-17T23:29:44.741Z,97649.69
2019-05-17T23:32:16.080Z,97649.02
2019-05-17T23:34:51.709Z,97652.81
2019-05-17T23:37:22.899Z,97652.95
2019-05-17T23:39:54.326Z,97650.62
2019-05-17T23:42:25.480Z,97649.94
2019-05-17T23:44:56.444Z,97642.06
2019-05-17T23:47:27.431Z,97646.34
2019-05-17T23:50:00.186Z,97646.19
2019-05-17T23:52:31.442Z,97652.23
2019-05-17T23:55:02.453Z,97650.35
2019-05-17T23:57:33.451Z,97648.02
